Time;durP1;ratioP1;P1;durP2;ratioP2;P2;SDS_P1;SDS_P2;PMS_P1;PMS_P2;Temp;Humidity;BMP_temperature;BMP_pressure;BME280_temperature;BME280_humidity;BME280_pressure;Samples;Min_cycle;Max_cycle;Signal;HPM_P1;HPM_P2
2023/10/12 00:02:21;;;;;;;2.93;1.30;;;14.50;99.90;;;;;;5053971;28;20498;-65
2023/10/12 00:04:53;;;;;;;3.67;1.23;;;14.40;99.90;;;;;;5058163;28;20477;-65
2023/10/12 00:07:33;;;;;;;7.50;2.00;;;14.30;99.90;;;;;;5051410;28;20481;-65
2023/10/12 00:10:19;;;;;;;4.10;1.43;;;14.30;99.90;;;;;;5053063;28;20494;-64
2023/10/12 00:12:50;;;;;;;5.83;1.63;;;14.20;99.90;;;;;;5052360;28;20523;-65
2023/10/12 00:15:24;;;;;;;3.17;1.40;;;14.20;99.90;;;;;;5053680;28;20490;-63
2023/10/12 00:17:55;;;;;;;3.07;1.50;;;14.20;99.90;;;;;;5055936;28;20473;-65
2023/10/12 00:20:32;;;;;;;5.87;1.77;;;14.20;99.90;;;;;;5052106;28;20474;-65
2023/10/12 00:23:09;;;;;;;4.73;1.63;;;14.20;99.90;;;;;;5056841;28;21005;-65
2023/10/12 00:25:47;;;;;;;3.60;1.63;;;14.20;99.90;;;;;;5054880;28;20985;-65
2023/10/12 00:28:19;;;;;;;7.17;2.10;;;14.20;99.90;;;;;;5053971;28;20865;-65
2023/10/12 00:30:49;;;;;;;8.00;2.33;;;14.20;99.90;;;;;;5053223;28;20921;-63
2023/10/12 00:33:18;;;;;;;6.77;2.80;;;14.10;99.90;;;;;;5053265;28;20485;-64
2023/10/12 00:35:50;;;;;;;6.33;2.33;;;14.10;99.90;;;;;;5051648;28;20485;-65
2023/10/12 00:38:18;;;;;;;7.83;2.23;;;14.00;99.90;;;;;;5049964;28;20995;-64
2023/10/12 00:40:55;;;;;;;7.10;1.90;;;14.00;99.90;;;;;;5050115;28;20539;-65
2023/10/12 00:43:28;;;;;;;4.67;1.70;;;14.00;99.90;;;;;;5053037;28;20497;-64
2023/10/12 00:45:56;;;;;;;6.43;1.90;;;13.90;99.90;;;;;;5052798;28;20485;-63
2023/10/12 00:48:30;;;;;;;8.20;1.83;;;13.80;99.90;;;;;;5052345;28;20522;-64
2023/10/12 00:50:59;;;;;;;8.23;2.30;;;13.80;99.90;;;;;;5053519;28;20466;-65
2023/10/12 00:53:32;;;;;;;5.93;1.80;;;13.80;99.90;;;;;;5049967;28;21024;-65
2023/10/12 00:56:02;;;;;;;6.63;2.30;;;13.70;99.90;;;;;;5051749;28;20525;-64
2023/10/12 00:58:31;;;;;;;6.63;1.90;;;13.70;99.90;;;;;;5051330;28;20526;-64
2023/10/12 01:01:03;;;;;;;7.70;1.93;;;13.70;99.90;;;;;;5054707;28;20465;-64
2023/10/12 01:03:35;;;;;;;6.40;2.13;;;13.70;99.90;;;;;;5052871;28;20508;-63
2023/10/12 01:06:20;;;;;;;6.67;2.07;;;13.60;99.90;;;;;;5048944;28;20492;-64
2023/10/12 01:08:49;;;;;;;3.27;1.63;;;13.50;99.90;;;;;;5050581;28;20474;-65
2023/10/12 01:11:20;;;;;;;3.97;1.53;;;13.40;99.90;;;;;;5055204;28;20602;-64
2023/10/12 01:14:02;;;;;;;9.20;2.53;;;13.40;99.90;;;;;;5054648;28;21034;-64
2023/10/12 01:16:42;;;;;;;6.67;2.57;;;13.30;99.90;;;;;;5055153;28;20482;-63
2023/10/12 01:19:19;;;;;;;3.87;1.80;;;13.30;99.90;;;;;;5056147;28;20465;-65
2023/10/12 01:21:49;;;;;;;4.50;1.90;;;13.30;99.90;;;;;;5055366;28;21770;-64
2023/10/12 01:24:17;;;;;;;10.30;2.10;;;13.30;99.90;;;;;;5055274;28;20652;-65
2023/10/12 01:26:48;;;;;;;4.27;1.87;;;13.20;99.90;;;;;;5048738;28;20532;-65
2023/10/12 01:29:20;;;;;;;6.73;1.67;;;13.20;99.90;;;;;;5053264;28;20470;-65
2023/10/12 01:31:53;;;;;;;7.10;2.40;;;13.20;99.90;;;;;;5050604;28;21017;-65
2023/10/12 01:34:24;;;;;;;5.37;1.90;;;13.10;99.90;;;;;;5050306;28;20482;-65
2023/10/12 01:36:58;;;;;;;6.37;2.23;;;13.10;99.90;;;;;;5052671;28;20469;-65
2023/10/12 01:39:28;;;;;;;7.00;2.40;;;13.10;99.90;;;;;;5053134;28;20598;-64
2023/10/12 01:41:57;;;;;;;7.07;2.40;;;13.10;99.90;;;;;;5050757;28;20480;-65
2023/10/12 01:44:25;;;;;;;6.13;2.57;;;13.10;99.90;;;;;;5053259;28;21080;-64
2023/10/12 01:46:53;;;;;;;4.90;1.63;;;13.00;99.90;;;;;;5053596;28;20466;-64
2023/10/12 01:49:21;;;;;;;8.57;1.93;;;13.00;99.90;;;;;;5053850;28;20564;-65
2023/10/12 01:51:49;;;;;;;5.40;2.23;;;13.00;99.90;;;;;;5056650;28;20463;-64
2023/10/12 01:54:24;;;;;;;6.73;2.10;;;13.00;99.90;;;;;;5051794;28;20830;-64
2023/10/12 01:56:53;;;;;;;3.93;1.80;;;13.00;99.90;;;;;;5050833;28;20480;-65
2023/10/12 01:59:21;;;;;;;10.23;2.00;;;13.00;99.90;;;;;;5055920;28;21036;-64
2023/10/12 02:01:59;;;;;;;5.63;1.73;;;13.00;99.90;;;;;;5049486;28;20572;-65
2023/10/12 02:04:27;;;;;;;3.00;1.70;;;13.00;99.90;;;;;;5052957;28;20492;-64
2023/10/12 02:06:56;;;;;;;4.40;2.20;;;13.00;99.90;;;;;;5053927;28;20848;-65
2023/10/12 02:09:26;;;;;;;4.17;1.70;;;12.90;99.90;;;;;;5055409;28;20505;-65
2023/10/12 02:11:55;;;;;;;5.47;1.67;;;13.00;99.90;;;;;;5056738;28;20906;-65
2023/10/12 02:14:32;;;;;;;3.77;1.60;;;13.00;99.90;;;;;;5056691;28;20494;-64
2023/10/12 02:17:02;;;;;;;6.03;2.67;;;12.90;99.90;;;;;;5052612;28;20474;-64
2023/10/12 02:19:38;;;;;;;6.13;1.70;;;12.90;99.90;;;;;;5052380;28;20529;-64
2023/10/12 02:22:06;;;;;;;5.50;2.10;;;12.90;99.90;;;;;;5054159;28;20464;-64
2023/10/12 02:24:36;;;;;;;6.90;2.00;;;12.90;99.90;;;;;;5049799;28;20481;-64
2023/10/12 02:27:07;;;;;;;5.83;2.17;;;12.90;99.90;;;;;;5051229;28;20466;-65
2023/10/12 02:29:36;;;;;;;5.90;1.90;;;12.90;99.90;;;;;;5049251;28;21103;-65
2023/10/12 02:32:17;;;;;;;5.87;1.70;;;12.90;99.90;;;;;;5053207;28;20477;-64
2023/10/12 02:34:46;;;;;;;5.50;2.03;;;12.90;99.90;;;;;;5043984;28;20498;-64
2023/10/12 02:37:19;;;;;;;8.40;2.17;;;12.80;99.90;;;;;;5049661;28;20473;-64
2023/10/12 02:39:48;;;;;;;8.70;2.50;;;12.80;99.90;;;;;;5055012;28;20543;-64
2023/10/12 02:42:18;;;;;;;7.10;1.87;;;12.80;99.90;;;;;;5051182;28;20473;-65
2023/10/12 02:47:34;;;;;;;4.90;1.90;;;12.80;99.90;;;;;;5053791;28;20572;-64
2023/10/12 02:50:15;;;;;;;6.13;1.73;;;12.80;99.90;;;;;;5049886;28;20553;-65
2023/10/12 02:52:44;;;;;;;9.50;2.57;;;12.80;99.90;;;;;;5054089;28;21077;-65
2023/10/12 02:55:24;;;;;;;3.33;1.77;;;12.70;99.90;;;;;;5051567;28;20488;-65
2023/10/12 02:57:56;;;;;;;3.30;2.13;;;12.70;99.90;;;;;;5050856;28;21174;-64
2023/10/12 03:00:34;;;;;;;10.43;2.60;;;12.70;99.90;;;;;;5050757;28;20531;-64
2023/10/12 03:03:22;;;;;;;6.47;1.90;;;12.70;99.90;;;;;;5049944;28;20474;-63
2023/10/12 03:05:52;;;;;;;5.67;1.83;;;12.70;99.90;;;;;;5048597;28;20491;-65
2023/10/12 03:08:22;;;;;;;4.47;2.10;;;12.70;99.90;;;;;;5055315;28;20478;-65
2023/10/12 03:11:12;;;;;;;5.00;1.93;;;12.70;99.90;;;;;;5052812;28;20597;-64
2023/10/12 03:13:43;;;;;;;4.63;1.97;;;12.70;99.90;;;;;;5052433;28;20759;-64
2023/10/12 03:16:20;;;;;;;4.20;1.47;;;12.60;99.90;;;;;;5050782;28;20482;-64
2023/10/12 03:18:57;;;;;;;4.93;1.90;;;12.70;99.90;;;;;;5052312;28;20481;-65
2023/10/12 03:21:27;;;;;;;6.10;2.00;;;12.60;99.90;;;;;;5053411;28;21014;-64
2023/10/12 03:23:57;;;;;;;6.90;2.17;;;12.70;99.90;;;;;;5050687;28;20505;-64
2023/10/12 03:26:27;;;;;;;4.10;1.77;;;12.60;99.90;;;;;;5051213;28;20489;-65
2023/10/12 03:29:09;;;;;;;4.87;1.90;;;12.60;99.90;;;;;;5055856;28;20592;-65
2023/10/12 03:31:52;;;;;;;5.67;1.87;;;12.60;99.90;;;;;;5056472;28;20556;-65
2023/10/12 03:34:35;;;;;;;3.03;1.87;;;12.60;99.90;;;;;;5054174;28;20490;-65
2023/10/12 03:37:05;;;;;;;4.47;1.73;;;12.60;99.90;;;;;;5053914;28;20638;-64
2023/10/12 03:39:43;;;;;;;6.67;2.07;;;12.60;99.90;;;;;;5054963;28;20505;-64
2023/10/12 03:42:13;;;;;;;8.07;2.30;;;12.60;99.90;;;;;;5058368;28;20949;-65
2023/10/12 03:44:52;;;;;;;7.10;1.73;;;12.60;99.90;;;;;;5057371;28;20576;-64
2023/10/12 03:47:30;;;;;;;6.83;2.03;;;12.60;99.90;;;;;;5057555;28;20525;-64
2023/10/12 03:49:59;;;;;;;9.13;2.50;;;12.60;99.90;;;;;;5054374;28;20522;-64
2023/10/12 03:52:30;;;;;;;9.30;1.90;;;12.50;99.90;;;;;;5054181;28;20557;-64
2023/10/12 03:55:19;;;;;;;6.30;2.20;;;12.50;99.90;;;;;;5054268;28;20485;-64
2023/10/12 03:58:00;;;;;;;4.77;1.70;;;12.50;99.90;;;;;;5053987;28;20567;-63
2023/10/12 04:00:34;;;;;;;4.70;1.90;;;12.50;99.90;;;;;;5057065;28;20477;-64
2023/10/12 04:03:06;;;;;;;5.33;1.80;;;12.60;99.90;;;;;;5056163;28;20468;-64
2023/10/12 04:05:46;;;;;;;3.87;1.73;;;12.50;99.90;;;;;;5054178;28;20481;-65
2023/10/12 04:16:40;;;;;;;8.10;2.60;;;12.50;99.90;;;;;;5053861;28;20573;-64
2023/10/12 04:19:08;;;;;;;6.03;2.20;;;12.50;99.90;;;;;;5053446;28;20466;-65
2023/10/12 04:21:39;;;;;;;9.73;2.77;;;12.40;99.90;;;;;;5056074;28;20474;-64
2023/10/12 04:27:23;;;;;;;6.20;2.20;;;12.40;99.90;;;;;;5051593;28;20501;-65
2023/10/12 04:29:57;;;;;;;5.33;1.87;;;12.40;99.90;;;;;;5053506;28;20531;-64
2023/10/12 04:32:51;;;;;;;7.70;2.00;;;12.50;99.90;;;;;;5053615;28;20472;-65
2023/10/12 04:35:27;;;;;;;11.57;2.10;;;12.40;99.90;;;;;;5049587;27;20484;-64
2023/10/12 04:38:06;;;;;;;4.00;1.93;;;12.50;99.90;;;;;;5052383;28;20479;-65
2023/10/12 04:40:36;;;;;;;6.07;2.10;;;12.50;99.90;;;;;;5053472;28;20545;-65
2023/10/12 04:43:06;;;;;;;3.00;2.20;;;12.50;99.90;;;;;;5053032;28;20485;-65
2023/10/12 04:46:05;;;;;;;7.03;2.20;;;12.50;99.90;;;;;;5056527;28;20478;-64
2023/10/12 04:48:33;;;;;;;8.23;2.20;;;12.50;99.90;;;;;;5051360;28;20477;-63
2023/10/12 04:51:07;;;;;;;6.53;2.47;;;12.50;99.90;;;;;;5051025;28;20474;-64
2023/10/12 04:53:53;;;;;;;8.60;2.00;;;12.50;99.90;;;;;;5049895;28;21201;-65
2023/10/12 04:56:23;;;;;;;4.10;1.83;;;12.50;99.90;;;;;;5050997;28;21628;-64
2023/10/12 04:58:57;;;;;;;6.70;2.57;;;12.50;99.90;;;;;;5050132;28;22507;-64
2023/10/12 05:01:39;;;;;;;3.90;1.83;;;12.50;99.90;;;;;;5052862;28;20462;-63
2023/10/12 05:04:09;;;;;;;9.57;2.77;;;12.50;99.90;;;;;;5051207;28;20501;-65
2023/10/12 05:06:56;;;;;;;6.17;2.00;;;12.50;99.90;;;;;;5052584;28;20983;-64
2023/10/12 05:09:26;;;;;;;6.27;2.07;;;12.60;99.90;;;;;;5041993;28;20473;-64
2023/10/12 05:11:54;;;;;;;6.57;2.37;;;12.50;99.90;;;;;;5045324;28;20482;-64
2023/10/12 05:14:25;;;;;;;6.97;2.57;;;12.50;99.90;;;;;;5042085;28;20997;-64
2023/10/12 05:16:54;;;;;;;6.63;2.00;;;12.60;99.90;;;;;;5041832;28;20561;-64
2023/10/12 05:19:23;;;;;;;5.47;2.20;;;12.50;99.90;;;;;;5042143;28;20470;-64
2023/10/12 05:21:51;;;;;;;5.60;1.90;;;12.50;99.90;;;;;;5044369;28;20505;-64
2023/10/12 05:24:22;;;;;;;9.23;2.13;;;12.50;99.90;;;;;;5046167;28;20498;-64
2023/10/12 05:26:53;;;;;;;8.50;2.50;;;12.50;99.90;;;;;;5051156;28;20490;-64
2023/10/12 05:29:34;;;;;;;5.60;2.00;;;12.50;99.90;;;;;;5052523;28;21047;-63
2023/10/12 05:32:06;;;;;;;3.90;1.63;;;12.50;99.90;;;;;;5053848;28;20470;-64
2023/10/12 05:34:44;;;;;;;7.03;2.03;;;12.50;99.90;;;;;;5048646;28;20856;-64
2023/10/12 05:37:26;;;;;;;8.37;2.60;;;12.50;99.90;;;;;;5052174;28;20509;-64
2023/10/12 05:39:55;;;;;;;6.80;2.13;;;12.40;99.90;;;;;;5055340;28;20552;-64
2023/10/12 05:42:24;;;;;;;6.63;2.47;;;12.50;99.90;;;;;;5051274;28;20998;-61
2023/10/12 05:45:05;;;;;;;6.50;2.33;;;12.50;99.90;;;;;;5049271;28;20559;-64
2023/10/12 05:47:34;;;;;;;5.47;2.17;;;12.50;99.90;;;;;;5051765;28;20536;-64
2023/10/12 05:50:05;;;;;;;6.00;1.60;;;12.50;99.90;;;;;;5053944;28;20896;-64
2023/10/12 05:52:34;;;;;;;5.73;2.40;;;12.50;99.90;;;;;;5052187;28;20505;-64
2023/10/12 05:55:18;;;;;;;6.67;2.13;;;12.50;99.90;;;;;;5047087;28;20486;-64
2023/10/12 05:57:48;;;;;;;7.40;2.27;;;12.50;99.90;;;;;;5053869;28;20462;-64
2023/10/12 06:00:35;;;;;;;6.53;1.87;;;12.50;99.90;;;;;;5054290;28;20473;-64
2023/10/12 06:03:07;;;;;;;6.83;2.00;;;12.50;99.90;;;;;;5054195;28;20480;-64
2023/10/12 06:05:35;;;;;;;9.53;2.10;;;12.50;99.90;;;;;;5054007;28;21094;-64
2023/10/12 06:08:04;;;;;;;7.67;2.00;;;12.50;99.90;;;;;;5055067;28;21462;-64
2023/10/12 06:10:33;;;;;;;5.03;2.33;;;12.40;99.90;;;;;;5054889;28;21038;-64
2023/10/12 06:13:05;;;;;;;5.40;2.00;;;12.50;99.90;;;;;;5056513;28;20466;-65
2023/10/12 06:15:39;;;;;;;4.70;2.97;;;12.50;99.90;;;;;;5053056;28;20532;-64
2023/10/12 06:18:21;;;;;;;8.90;2.30;;;12.50;99.90;;;;;;5051166;28;20461;-65
2023/10/12 06:20:58;;;;;;;9.23;2.40;;;12.40;99.90;;;;;;5051692;28;20794;-64
2023/10/12 06:23:26;;;;;;;10.33;2.33;;;12.50;99.90;;;;;;5052614;28;21102;-64
2023/10/12 06:25:55;;;;;;;6.53;2.17;;;12.50;99.90;;;;;;5051696;28;20485;-64
2023/10/12 06:28:34;;;;;;;4.17;2.50;;;12.50;99.90;;;;;;5050985;28;20970;-64
2023/10/12 06:31:04;;;;;;;5.17;2.37;;;12.50;99.90;;;;;;5053353;28;21008;-64
2023/10/12 06:33:40;;;;;;;8.63;2.43;;;12.50;99.90;;;;;;5054499;28;20860;-64
2023/10/12 06:36:16;;;;;;;6.70;2.17;;;12.50;99.90;;;;;;5048865;28;20481;-64
2023/10/12 06:39:02;;;;;;;7.20;2.30;;;12.50;99.90;;;;;;5051105;28;20537;-64
2023/10/12 06:41:58;;;;;;;5.13;2.37;;;12.50;99.90;;;;;;5052383;28;20562;-64
2023/10/12 06:44:25;;;;;;;4.80;2.37;;;12.60;99.90;;;;;;5051751;28;20606;-64
2023/10/12 06:46:53;;;;;;;4.73;2.50;;;12.60;99.90;;;;;;5049627;28;20514;-64
2023/10/12 06:49:24;;;;;;;4.83;2.27;;;12.50;99.90;;;;;;5052309;28;20483;-64
2023/10/12 06:52:00;;;;;;;6.40;2.40;;;12.60;99.90;;;;;;5052808;28;20562;-64
2023/10/12 06:54:39;;;;;;;5.70;2.20;;;12.50;99.90;;;;;;5048853;28;20482;-64
2023/10/12 07:00:15;;;;;;;8.00;1.73;;;12.60;99.90;;;;;;5049859;28;20466;-64
2023/10/12 07:02:43;;;;;;;6.20;1.97;;;12.60;99.90;;;;;;5050970;28;20585;-64
2023/10/12 07:05:19;;;;;;;5.00;1.93;;;12.60;99.90;;;;;;5052633;28;21031;-64
2023/10/12 07:07:51;;;;;;;3.17;1.90;;;12.70;99.90;;;;;;5050044;28;20485;-64
2023/10/12 07:10:28;;;;;;;7.73;2.23;;;12.70;99.90;;;;;;5052759;28;20481;-64
2023/10/12 07:13:03;;;;;;;4.90;1.70;;;12.60;99.90;;;;;;5049145;28;21311;-63
2023/10/12 07:15:40;;;;;;;6.90;2.30;;;12.70;99.90;;;;;;5047678;28;20792;-64
2023/10/12 07:18:14;;;;;;;9.27;2.07;;;12.70;99.90;;;;;;5054356;28;20925;-64
2023/10/12 07:20:46;;;;;;;6.10;2.00;;;12.70;99.90;;;;;;5052652;28;20922;-64
2023/10/12 07:23:19;;;;;;;5.63;1.90;;;12.70;99.90;;;;;;5052111;28;20579;-64
2023/10/12 07:25:49;;;;;;;6.03;1.77;;;12.70;99.90;;;;;;5049573;28;20470;-63
2023/10/12 07:28:18;;;;;;;6.23;2.33;;;12.70;99.90;;;;;;5049675;28;20485;-64
2023/10/12 07:33:31;;;;;;;3.80;1.70;;;12.70;99.90;;;;;;5050414;28;20520;-63
2023/10/12 07:36:11;;;;;;;5.70;2.10;;;12.70;99.90;;;;;;5050103;28;20481;-64
2023/10/12 07:38:40;;;;;;;8.30;2.77;;;12.70;99.90;;;;;;5051277;28;20546;-63
2023/10/12 07:41:09;;;;;;;9.53;2.20;;;12.70;99.90;;;;;;5049492;28;20928;-64
2023/10/12 07:43:38;;;;;;;8.33;2.03;;;12.70;99.90;;;;;;5051880;28;20535;-64
2023/10/12 07:46:13;;;;;;;6.70;2.07;;;12.70;99.90;;;;;;5050981;28;20491;-64
2023/10/12 07:48:42;;;;;;;5.80;2.10;;;12.70;99.90;;;;;;5050105;28;20555;-63
2023/10/12 07:51:24;;;;;;;7.53;1.83;;;12.80;99.90;;;;;;5051853;28;21097;-64
2023/10/12 07:53:59;;;;;;;7.07;1.63;;;12.80;99.90;;;;;;5050471;28;20597;-63
2023/10/12 07:56:33;;;;;;;7.77;2.33;;;12.80;99.90;;;;;;5053189;28;20509;-63
2023/10/12 07:59:02;;;;;;;6.60;2.17;;;12.90;99.90;;;;;;5052070;28;21006;-64
2023/10/12 08:01:47;;;;;;;6.47;1.67;;;13.00;99.90;;;;;;5050334;28;21782;-64
2023/10/12 08:04:28;;;;;;;3.80;1.53;;;13.00;99.90;;;;;;5052594;28;20572;-64
2023/10/12 08:06:59;;;;;;;3.70;1.53;;;13.10;99.90;;;;;;5052158;28;20523;-64
2023/10/12 08:09:47;;;;;;;5.37;1.90;;;13.10;99.90;;;;;;5052450;28;20923;-64
2023/10/12 08:12:27;;;;;;;5.40;2.20;;;13.10;99.90;;;;;;5053367;28;20487;-63
2023/10/12 08:15:07;;;;;;;5.97;1.60;;;13.20;99.90;;;;;;5053476;28;20489;-64
2023/10/12 08:17:35;;;;;;;5.83;2.10;;;13.20;99.90;;;;;;5057547;28;20494;-64
2023/10/12 08:22:57;;;;;;;12.37;2.10;;;13.20;99.90;;;;;;5056417;28;20505;-64
2023/10/12 08:25:37;;;;;;;6.30;2.33;;;13.20;99.90;;;;;;5053391;28;20509;-64
2023/10/12 08:28:18;;;;;;;10.10;2.60;;;13.20;99.90;;;;;;5054661;28;20989;-64
2023/10/12 08:30:57;;;;;;;4.27;1.63;;;13.20;99.90;;;;;;5055775;28;20472;-64
2023/10/12 08:36:29;;;;;;;8.83;2.30;;;13.40;99.90;;;;;;5051930;28;20484;-64
2023/10/12 08:39:08;;;;;;;6.60;1.93;;;13.40;99.90;;;;;;5054307;28;20470;-64
2023/10/12 08:41:58;;;;;;;4.67;1.80;;;13.50;99.90;;;;;;5054745;28;20574;-64
2023/10/12 08:44:25;;;;;;;5.77;2.20;;;13.50;99.90;;;;;;5056236;28;21145;-64
2023/10/12 08:46:56;;;;;;;4.33;1.40;;;13.60;99.90;;;;;;5055497;28;20489;-64
2023/10/12 08:49:52;;;;;;;7.07;1.73;;;13.70;99.90;;;;;;5054775;28;21008;-64
2023/10/12 08:52:27;;;;;;;5.13;1.73;;;13.70;99.90;;;;;;5056689;28;20979;-64
2023/10/12 08:55:03;;;;;;;5.43;1.60;;;13.90;99.90;;;;;;5056997;28;20500;-64
2023/10/12 08:57:43;;;;;;;7.50;1.73;;;13.90;99.90;;;;;;5058728;28;20850;-63
2023/10/12 09:00:24;;;;;;;4.67;1.67;;;14.00;99.90;;;;;;5058814;28;21212;-63
2023/10/12 09:02:58;;;;;;;7.60;1.90;;;14.10;99.90;;;;;;5058168;28;20545;-63
2023/10/12 09:05:28;;;;;;;6.63;1.80;;;14.10;99.90;;;;;;5057050;28;20529;-62
2023/10/12 09:08:24;;;;;;;5.90;1.63;;;14.10;99.90;;;;;;5057033;28;20494;-63
2023/10/12 09:10:55;;;;;;;3.63;2.03;;;14.10;99.90;;;;;;5057650;28;20780;-62
2023/10/12 09:13:28;;;;;;;4.77;1.70;;;14.10;99.90;;;;;;5057123;28;20493;-62
2023/10/12 09:15:58;;;;;;;6.93;2.37;;;14.10;99.90;;;;;;5059363;28;20481;-63
2023/10/12 09:18:29;;;;;;;4.53;1.47;;;14.10;99.90;;;;;;5059444;28;20843;-63
2023/10/12 09:21:06;;;;;;;6.97;2.10;;;14.10;99.90;;;;;;5057586;28;20457;-63
2023/10/12 09:23:46;;;;;;;8.97;2.20;;;14.20;99.90;;;;;;5056786;28;20492;-63
2023/10/12 09:26:19;;;;;;;5.33;1.73;;;14.10;99.90;;;;;;5053583;28;20485;-63
2023/10/12 09:29:04;;;;;;;4.13;1.57;;;14.20;99.90;;;;;;5055943;28;20493;-63
2023/10/12 09:31:53;;;;;;;6.67;1.77;;;14.30;99.90;;;;;;5055209;28;20540;-63
2023/10/12 09:34:42;;;;;;;7.77;1.80;;;14.20;99.90;;;;;;5055020;28;20496;-63
2023/10/12 09:37:17;;;;;;;3.60;1.43;;;14.20;99.90;;;;;;5054627;28;20703;-63
2023/10/12 09:39:47;;;;;;;5.00;1.80;;;14.30;99.90;;;;;;5054806;28;20973;-63
2023/10/12 09:42:30;;;;;;;7.13;1.77;;;14.30;99.90;;;;;;5055214;28;21069;-63
2023/10/12 09:45:05;;;;;;;5.40;1.70;;;14.30;99.90;;;;;;5055336;28;20747;-63
2023/10/12 09:47:50;;;;;;;6.00;2.10;;;14.40;99.90;;;;;;5055150;28;20478;-63
2023/10/12 09:50:27;;;;;;;5.53;1.30;;;14.40;99.90;;;;;;5057689;28;20466;-64
2023/10/12 09:52:58;;;;;;;5.53;1.73;;;14.40;99.90;;;;;;5053799;28;20523;-62
2023/10/12 09:55:33;;;;;;;4.87;1.40;;;14.40;99.90;;;;;;5056316;28;20863;-63
2023/10/12 09:58:14;;;;;;;5.87;1.60;;;14.40;99.90;;;;;;5054494;28;20474;-63
2023/10/12 10:00:55;;;;;;;3.63;1.60;;;14.40;99.90;;;;;;5054848;28;20471;-63
2023/10/12 10:03:35;;;;;;;5.00;2.07;;;14.50;99.90;;;;;;5057960;28;20569;-63
2023/10/12 10:06:19;;;;;;;6.63;1.83;;;14.50;99.90;;;;;;5054617;28;20506;-62
2023/10/12 10:09:09;;;;;;;6.70;1.43;;;14.60;99.90;;;;;;5055016;28;20489;-63
2023/10/12 10:11:39;;;;;;;6.60;1.93;;;14.70;99.90;;;;;;5056112;28;20534;-63
2023/10/12 10:14:13;;;;;;;6.20;1.60;;;14.80;99.90;;;;;;5056162;28;20576;-63
2023/10/12 10:16:47;;;;;;;3.83;1.20;;;14.80;99.90;;;;;;5056681;28;20493;-63
2023/10/12 10:19:17;;;;;;;5.73;2.00;;;14.80;99.90;;;;;;5055349;28;20461;-63
2023/10/12 10:21:52;;;;;;;10.00;1.90;;;14.90;99.90;;;;;;5056383;28;20470;-64
2023/10/12 10:24:24;;;;;;;3.30;1.50;;;15.00;99.90;;;;;;5057358;28;20520;-63
2023/10/12 10:27:10;;;;;;;9.00;1.60;;;15.10;99.90;;;;;;5052411;28;20473;-63
2023/10/12 10:29:52;;;;;;;4.63;1.57;;;15.10;99.90;;;;;;5056136;28;20489;-63
2023/10/12 10:32:29;;;;;;;5.53;1.67;;;15.20;99.90;;;;;;5055305;28;21027;-63
2023/10/12 10:35:04;;;;;;;7.57;1.90;;;15.20;99.90;;;;;;5051408;28;20489;-63
2023/10/12 10:37:57;;;;;;;6.90;1.90;;;15.30;99.90;;;;;;5053767;28;20473;-62
2023/10/12 10:40:44;;;;;;;7.43;1.90;;;15.40;99.90;;;;;;5055443;28;20476;-63
2023/10/12 10:43:15;;;;;;;7.87;1.57;;;15.50;99.90;;;;;;5054727;28;20481;-62
2023/10/12 10:45:56;;;;;;;3.90;1.70;;;15.60;99.90;;;;;;5054360;28;20525;-63
2023/10/12 10:48:27;;;;;;;8.10;2.00;;;15.70;99.90;;;;;;5056493;28;20485;-63
2023/10/12 10:51:19;;;;;;;7.43;1.73;;;15.70;99.90;;;;;;5055802;28;20454;-64
2023/10/12 10:53:52;;;;;;;3.27;1.50;;;15.80;99.90;;;;;;5056653;28;20532;-63
2023/10/12 10:56:35;;;;;;;5.27;1.87;;;15.90;99.90;;;;;;5074208;28;20962;-63
2023/10/12 10:59:05;;;;;;;8.53;1.20;;;15.90;99.90;;;;;;5074966;28;21257;-63
2023/10/12 11:01:35;;;;;;;3.00;1.27;;;15.90;99.90;;;;;;5073992;28;20461;-62
2023/10/12 11:04:08;;;;;;;6.37;1.73;;;16.00;99.90;;;;;;5073900;27;20489;-63
2023/10/12 11:06:37;;;;;;;2.90;1.47;;;16.20;99.90;;;;;;5053588;28;20531;-62
2023/10/12 11:09:06;;;;;;;3.93;1.30;;;16.30;99.90;;;;;;5054067;28;21079;-64
2023/10/12 11:11:45;;;;;;;5.03;1.47;;;16.40;99.90;;;;;;5055686;28;20907;-62
2023/10/12 11:14:17;;;;;;;5.23;1.47;;;16.50;99.90;;;;;;5054610;28;20488;-64
2023/10/12 11:16:47;;;;;;;5.80;1.33;;;16.50;99.90;;;;;;5056406;28;20561;-64
2023/10/12 11:19:19;;;;;;;6.80;1.70;;;16.50;99.90;;;;;;5049481;28;20470;-63
2023/10/12 11:21:51;;;;;;;3.20;1.37;;;16.50;99.90;;;;;;5052627;28;20469;-65
2023/10/12 11:24:22;;;;;;;6.20;1.77;;;16.50;99.90;;;;;;5045020;28;20488;-62
2023/10/12 11:26:52;;;;;;;3.60;2.30;;;16.60;99.90;;;;;;5051826;28;20475;-62
2023/10/12 11:29:20;;;;;;;4.20;2.70;;;16.80;99.90;;;;;;5045510;28;21508;-62
2023/10/12 11:32:08;;;;;;;5.20;1.80;;;17.00;99.90;;;;;;5048551;28;20557;-62
2023/10/12 11:34:38;;;;;;;4.70;1.50;;;17.10;99.90;;;;;;5048864;28;20876;-62
2023/10/12 11:37:06;;;;;;;4.90;1.37;;;17.20;99.90;;;;;;5051427;28;20536;-62
2023/10/12 11:39:41;;;;;;;3.77;1.57;;;17.30;99.90;;;;;;5053729;28;20469;-62
2023/10/12 11:42:12;;;;;;;4.57;1.50;;;17.40;99.90;;;;;;5050197;28;20480;-62
2023/10/12 11:44:45;;;;;;;3.73;1.37;;;17.40;99.90;;;;;;5044294;28;20505;-62
2023/10/12 11:47:37;;;;;;;6.70;2.10;;;17.40;99.90;;;;;;5047393;28;20473;-62
2023/10/12 11:50:09;;;;;;;5.60;1.73;;;17.40;99.90;;;;;;5048589;28;20495;-63
2023/10/12 11:52:40;;;;;;;5.30;1.80;;;17.30;99.90;;;;;;5046811;28;20476;-61
2023/10/12 11:55:18;;;;;;;4.90;1.70;;;17.40;99.90;;;;;;5050547;28;20593;-62
2023/10/12 11:57:48;;;;;;;7.83;2.07;;;17.70;99.90;;;;;;5052160;28;20473;-63
2023/10/12 12:00:25;;;;;;;7.70;1.60;;;18.10;99.90;;;;;;5054134;28;20462;-70
2023/10/12 12:02:57;;;;;;;5.20;1.40;;;18.90;99.90;;;;;;5057269;28;20592;-72
2023/10/12 12:05:26;;;;;;;3.17;1.07;;;19.60;99.90;;;;;;5055831;28;20583;-70
2023/10/12 12:07:56;;;;;;;5.83;1.47;;;20.10;99.90;;;;;;5055824;28;20492;-67
2023/10/12 12:10:37;;;;;;;4.50;1.83;;;19.90;99.90;;;;;;5054579;28;21094;-68
2023/10/12 12:13:08;;;;;;;4.23;1.30;;;20.40;99.90;;;;;;5053813;28;20474;-65
2023/10/12 12:15:40;;;;;;;4.40;1.20;;;21.30;99.90;;;;;;5052034;28;20511;-66
2023/10/12 12:18:14;;;;;;;3.33;1.47;;;21.10;99.90;;;;;;5052022;28;20582;-66
2023/10/12 12:20:44;;;;;;;7.37;1.70;;;20.40;99.90;;;;;;5051341;28;20575;-69
2023/10/12 12:23:12;;;;;;;3.53;1.40;;;21.00;99.90;;;;;;5054519;28;20489;-68
2023/10/12 12:25:41;;;;;;;5.20;1.53;;;21.40;99.90;;;;;;5051959;28;21477;-68
2023/10/12 12:28:14;;;;;;;5.30;1.43;;;21.00;99.90;;;;;;5052515;28;20563;-67
2023/10/12 12:30:51;;;;;;;6.00;1.37;;;20.60;99.90;;;;;;5054157;28;20497;-66
2023/10/12 12:33:28;;;;;;;4.33;1.70;;;20.00;99.90;;;;;;5054105;28;20518;-67
2023/10/12 12:36:00;;;;;;;7.10;2.20;;;19.30;99.90;;;;;;5054568;28;20577;-67
2023/10/12 12:38:43;;;;;;;4.80;1.40;;;18.80;99.90;;;;;;5045675;28;20466;-65
2023/10/12 12:41:19;;;;;;;6.97;1.97;;;18.40;99.90;;;;;;5051724;28;20484;-69
2023/10/12 12:43:48;;;;;;;8.37;1.90;;;18.00;99.90;;;;;;5048081;28;20493;-69
2023/10/12 12:46:16;;;;;;;3.67;1.60;;;17.80;99.90;;;;;;5048643;28;20510;-68
2023/10/12 12:48:49;;;;;;;6.90;1.77;;;17.50;99.90;;;;;;5051648;28;20489;-66
2023/10/12 12:51:17;;;;;;;5.87;1.60;;;17.30;99.90;;;;;;5056175;28;20516;-64
2023/10/12 12:53:47;;;;;;;3.80;1.47;;;17.10;99.90;;;;;;5050877;28;20529;-65
2023/10/12 12:56:16;;;;;;;7.20;1.53;;;17.00;99.90;;;;;;5049779;28;20526;-65
2023/10/12 12:58:46;;;;;;;4.13;1.53;;;17.00;99.90;;;;;;5051592;28;20476;-65
2023/10/12 13:01:16;;;;;;;4.57;1.73;;;17.00;99.90;;;;;;5050287;28;20470;-65
2023/10/12 13:03:46;;;;;;;5.63;1.50;;;17.70;99.90;;;;;;5051940;28;20493;-65
2023/10/12 13:06:16;;;;;;;2.70;1.03;;;19.90;99.90;;;;;;5053272;28;20478;-65
2023/10/12 13:08:44;;;;;;;3.93;1.30;;;20.60;99.90;;;;;;5051135;28;20466;-65
2023/10/12 13:11:18;;;;;;;3.40;1.47;;;20.40;99.90;;;;;;5049477;28;20485;-65
2023/10/12 13:13:47;;;;;;;4.70;1.30;;;21.90;99.90;;;;;;5049276;28;20490;-66
2023/10/12 13:16:16;;;;;;;4.20;1.50;;;24.00;99.90;;;;;;5050670;28;20478;-65
2023/10/12 13:18:47;;;;;;;3.23;1.60;;;25.40;94.70;;;;;;5051844;28;21010;-65
2023/10/12 13:21:16;;;;;;;7.13;1.93;;;26.00;86.10;;;;;;5051998;28;20469;-65
2023/10/12 13:23:45;;;;;;;3.40;1.50;;;26.50;77.70;;;;;;5052635;28;20500;-65
2023/10/12 13:26:17;;;;;;;4.40;1.97;;;25.70;83.60;;;;;;5050577;28;21188;-65
2023/10/12 13:28:46;;;;;;;3.93;1.60;;;24.40;82.40;;;;;;5053250;28;20461;-67
2023/10/12 13:31:14;;;;;;;6.23;1.93;;;23.30;92.90;;;;;;5047545;28;21077;-67
2023/10/12 13:33:42;;;;;;;4.33;1.37;;;22.40;97.70;;;;;;5051113;28;21016;-67
2023/10/12 13:36:12;;;;;;;4.77;1.20;;;21.60;99.90;;;;;;5048325;27;21038;-66
2023/10/12 13:38:41;;;;;;;5.33;1.67;;;20.90;99.90;;;;;;5050954;28;21029;-66
2023/10/12 13:41:11;;;;;;;3.17;1.73;;;20.40;99.90;;;;;;5054782;28;20462;-66
2023/10/12 13:43:40;;;;;;;3.10;1.20;;;19.80;99.90;;;;;;5051499;28;20482;-65
2023/10/12 13:46:08;;;;;;;4.37;1.40;;;19.40;99.90;;;;;;5053012;28;20597;-65
2023/10/12 13:48:38;;;;;;;5.57;1.40;;;19.10;99.90;;;;;;5053179;28;20476;-65